Aviation Digital Data Service (ADDS)

Output produced by METARs form (1608 UTC 03 June 2020)
found at http://www.aviationweather.gov/metar/data/
 
Forecast for: AMD
Text: TAF AMD WBGG 031129Z 0312/0412 VRB03KT 9999 FEW020
Forecast period: 1200 UTC 03 June 2020 to 1200 UTC 04 June 2020
Forecast type: FROM: standard forecast or significant change
Winds: variable direction winds at 3 MPH (3 knots; 1.5 m/s)
Visibility: 6 or more miles 10+ km)
Ceiling: at least 12,000 feet AGL
Clouds: few clouds at 2000 feet AGL
Weather: no significant weather forecast for this period
Text: TEMPO 0312/0316 30008KT 3000 TSRA FEW015CB SCT020
Forecast period: 1200 to 1600 UTC 03 June 2020
Forecast type: TEMPORARY: The following changes expected for less than half the time period
Winds: from the WNW (300 degrees) at 9 MPH (8 knots; 4.1 m/s)
Visibility: 1.86 miles (2.99 km)
Ceiling: at least 12,000 feet AGL
Clouds: few clouds at 1500 feet AGL
scattered clouds at 2000 feet AGL
Weather: TSRA  (rain associated with thunderstorm(s))